createdAt,value
2018-06-01T00:01:10.883Z,34.10
2018-06-01T00:03:38.408Z,34.08
2018-06-01T00:06:06.222Z,33.70
2018-06-01T00:08:33.751Z,33.35
2018-06-01T00:11:02.037Z,32.40
2018-06-01T00:13:29.577Z,35.67
2018-06-01T00:15:57.100Z,33.75
2018-06-01T00:18:24.631Z,35.17
2018-06-01T00:20:52.163Z,34.20
2018-06-01T00:23:19.684Z,34.00
2018-06-01T00:25:47.207Z,34.33
2018-06-01T00:28:15.358Z,37.20
2018-06-01T00:30:42.882Z,35.67
2018-06-01T00:33:10.408Z,35.78
2018-06-01T00:35:38.577Z,36.55
2018-06-01T00:38:06.139Z,35.28
2018-06-01T00:40:33.653Z,36.95
2018-06-01T00:43:01.164Z,34.65
2018-06-01T00:45:28.682Z,35.50
2018-06-01T00:47:56.199Z,35.63
2018-06-01T00:50:23.715Z,37.05
2018-06-01T00:52:51.831Z,37.30
2018-06-01T00:55:25.214Z,37.35
2018-06-01T00:57:52.734Z,36.53
2018-06-01T01:00:20.259Z,37.33
2018-06-01T01:02:47.783Z,39.05
2018-06-01T01:05:15.309Z,38.35
2018-06-01T01:07:42.828Z,39.75
2018-06-01T01:10:11.115Z,40.78
2018-06-01T01:12:38.638Z,37.67
2018-06-01T01:15:06.166Z,37.97
2018-06-01T01:17:33.703Z,40.67
2018-06-01T01:20:01.247Z,37.65
2018-06-01T01:22:28.766Z,39.93
2018-06-01T01:24:56.286Z,37.55
2018-06-01T01:27:23.798Z,37.35
2018-06-01T01:29:51.335Z,38.55
2018-06-01T01:32:18.904Z,37.83
2018-06-01T01:34:46.439Z,37.88
2018-06-01T01:37:13.970Z,37.13
2018-06-01T01:39:41.502Z,38.28
2018-06-01T01:42:09.014Z,38.72
2018-06-01T01:44:36.539Z,38.20
2018-06-01T01:47:04.058Z,38.13
2018-06-01T01:49:31.639Z,37.80
2018-06-01T01:51:59.126Z,38.35
2018-06-01T01:54:27.404Z,40.22
2018-06-01T01:56:54.923Z,38.10
2018-06-01T01:59:22.446Z,36.13
2018-06-01T02:01:51.267Z,39.13
2018-06-01T02:04:18.999Z,38.15
2018-06-01T02:06:46.532Z,38.00
2018-06-01T02:09:14.064Z,38.70
2018-06-01T02:11:41.586Z,37.15
2018-06-01T02:14:09.099Z,35.95
2018-06-01T02:16:36.625Z,37.25
2018-06-01T02:19:04.143Z,37.00
2018-06-01T02:21:31.686Z,36.53
2018-06-01T02:23:59.206Z,36.88
2018-06-01T02:26:26.744Z,39.67
2018-06-01T02:28:54.255Z,34.65
2018-06-01T02:31:21.795Z,36.58
2018-06-01T02:33:49.320Z,38.08
2018-06-01T02:36:16.884Z,36.42
2018-06-01T02:38:44.398Z,39.38
2018-06-01T02:41:11.937Z,36.13
2018-06-01T02:43:39.465Z,37.72
2018-06-01T02:46:07.803Z,38.53
2018-06-01T02:48:35.331Z,36.08
2018-06-01T02:51:02.873Z,35.10
2018-06-01T02:53:30.398Z,35.65
2018-06-01T02:55:57.975Z,34.75
2018-06-01T02:58:25.524Z,36.30
2018-06-01T03:00:53.063Z,37.17
2018-06-01T03:03:20.581Z,39.92
2018-06-01T03:05:48.116Z,40.20
2018-06-01T03:08:15.631Z,42.40
2018-06-01T03:10:43.163Z,40.65
2018-06-01T03:13:10.679Z,41.70
2018-06-01T03:15:38.229Z,40.65
2018-06-01T03:18:05.749Z,37.70
2018-06-01T03:20:33.278Z,39.78
2018-06-01T03:23:00.802Z,39.60
2018-06-01T03:25:28.323Z,41.00
2018-06-01T03:27:55.835Z,40.25
2018-06-01T03:30:23.359Z,41.95
2018-06-01T03:32:50.875Z,38.58
2018-06-01T03:35:18.827Z,41.30
2018-06-01T03:37:46.347Z,39.65
2018-06-01T03:40:13.861Z,41.28
2018-06-01T03:42:41.378Z,39.63
2018-06-01T03:45:08.897Z,38.28
2018-06-01T03:47:36.415Z,39.72
2018-06-01T03:50:03.952Z,40.58
2018-06-01T03:52:31.467Z,39.10
2018-06-01T03:54:58.996Z,40.63
2018-06-01T03:57:27.486Z,39.53
2018-06-01T03:59:55.004Z,39.75
2018-06-01T04:02:22.554Z,38.25
2018-06-01T04:04:50.087Z,39.70
2018-06-01T04:07:18.509Z,39.67
2018-06-01T04:09:46.879Z,38.75
2018-06-01T04:12:14.409Z,40.30
2018-06-01T04:14:41.978Z,37.88
2018-06-01T04:17:09.494Z,40.85
2018-06-01T04:19:37.032Z,40.10
2018-06-01T04:22:04.619Z,39.47
2018-06-01T04:24:32.171Z,40.33
2018-06-01T04:27:00.504Z,40.60
2018-06-01T04:29:28.022Z,38.85
2018-06-01T04:31:55.539Z,38.45
2018-06-01T04:34:23.059Z,37.60
2018-06-01T04:36:50.591Z,37.70
2018-06-01T04:39:18.108Z,38.65
2018-06-01T04:41:46.228Z,37.47
2018-06-01T04:44:13.751Z,39.67
2018-06-01T04:46:41.297Z,38.25
2018-06-01T04:49:08.819Z,37.00
2018-06-01T04:51:36.375Z,36.80
2018-06-01T04:54:04.679Z,39.15
2018-06-01T04:56:32.223Z,37.78
2018-06-01T04:59:00.667Z,37.05
2018-06-01T05:01:28.193Z,37.53
2018-06-01T05:03:55.719Z,36.88
2018-06-01T05:06:24.000Z,37.03
2018-06-01T05:08:51.528Z,36.90
2018-06-01T05:11:19.052Z,36.08
2018-06-01T05:13:46.581Z,36.25
2018-06-01T05:16:14.866Z,34.60
2018-06-01T05:18:42.389Z,37.05
2018-06-01T05:21:09.970Z,37.38
2018-06-01T05:23:38.259Z,36.72
2018-06-01T05:26:05.779Z,35.80
2018-06-01T05:28:33.299Z,33.88
2018-06-01T05:31:00.822Z,36.70
2018-06-01T05:33:28.335Z,35.63
2018-06-01T05:35:55.843Z,35.50
2018-06-01T05:38:23.383Z,35.97
2018-06-01T05:40:51.676Z,34.30
2018-06-01T05:43:19.191Z,35.67
2018-06-01T05:45:46.709Z,33.50
2018-06-01T05:48:15.014Z,33.42
2018-06-01T05:50:42.531Z,33.13
2018-06-01T05:53:10.060Z,34.60
2018-06-01T05:55:37.586Z,33.67
2018-06-01T05:58:05.136Z,31.95
2018-06-01T06:00:32.675Z,34.72
2018-06-01T06:03:00.205Z,33.80
2018-06-01T06:05:27.768Z,31.85
2018-06-01T06:07:55.304Z,31.15
2018-06-01T06:10:22.834Z,30.52
2018-06-01T06:12:51.144Z,29.87
2018-06-01T06:15:18.664Z,29.17
2018-06-01T06:17:46.987Z,27.23
2018-06-01T06:20:14.507Z,28.17
2018-06-01T06:22:42.050Z,25.45
2018-06-01T06:25:09.574Z,25.90
2018-06-01T06:27:37.107Z,23.75
2018-06-01T06:30:04.759Z,22.67
2018-06-01T06:32:32.290Z,22.92
2018-06-01T06:34:59.807Z,22.35
2018-06-01T06:37:27.382Z,21.62
2018-06-01T06:39:54.900Z,21.87
2018-06-01T06:42:22.428Z,21.35
2018-06-01T06:44:49.948Z,21.92
2018-06-01T06:47:19.966Z,21.87
2018-06-01T06:49:47.882Z,24.37
2018-06-01T06:52:15.406Z,23.30
2018-06-01T06:54:42.931Z,23.62
2018-06-01T06:57:10.471Z,23.15
2018-06-01T06:59:37.990Z,23.87
2018-06-01T07:02:05.516Z,25.00
2018-06-01T07:04:33.045Z,24.80
2018-06-01T07:07:01.335Z,22.13
2018-06-01T07:09:28.868Z,23.27
2018-06-01T07:11:56.378Z,22.62
2018-06-01T07:14:23.889Z,23.20
2018-06-01T07:16:52.182Z,23.95
2018-06-01T07:19:19.697Z,21.92
2018-06-01T07:21:47.214Z,21.85
2018-06-01T07:24:15.504Z,19.62
2018-06-01T07:26:43.028Z,21.25
2018-06-01T07:29:10.563Z,20.20
2018-06-01T07:31:38.095Z,20.80
2018-06-01T07:34:05.619Z,19.62
2018-06-01T07:36:33.542Z,21.60
2018-06-01T07:39:01.323Z,23.15
2018-06-01T07:41:29.660Z,22.40
2018-06-01T07:43:57.187Z,23.12
2018-06-01T07:46:24.699Z,22.15
2018-06-01T07:48:52.295Z,23.15
2018-06-01T07:51:19.802Z,22.00
2018-06-01T07:53:47.315Z,23.10
2018-06-01T07:56:14.840Z,23.67
2018-06-01T07:58:42.363Z,22.58
2018-06-01T08:01:09.883Z,26.08
2018-06-01T08:03:37.513Z,24.70
2018-06-01T08:06:04.939Z,25.00
2018-06-01T08:08:32.510Z,27.05
2018-06-01T08:11:00.807Z,30.25
2018-06-01T08:13:28.787Z,30.48
2018-06-01T08:15:56.314Z,33.22
2018-06-01T08:18:23.854Z,31.12
2018-06-01T08:20:51.370Z,34.47
2018-06-01T08:23:19.507Z,33.25
2018-06-01T08:25:47.024Z,34.10
2018-06-01T08:28:14.542Z,35.80
2018-06-01T08:30:42.061Z,34.03
2018-06-01T08:33:09.587Z,35.17
2018-06-01T08:35:37.109Z,31.33
2018-06-01T08:38:06.089Z,34.85
2018-06-01T08:40:33.609Z,35.33
2018-06-01T08:43:01.125Z,35.17
2018-06-01T08:45:28.643Z,36.08
2018-06-01T08:47:56.186Z,36.70
2018-06-01T08:50:23.699Z,38.03
2018-06-01T08:52:52.042Z,37.40
2018-06-01T08:55:19.560Z,38.80
2018-06-01T08:57:47.100Z,36.83
2018-06-01T09:00:14.622Z,39.65
2018-06-01T09:02:42.936Z,38.28
2018-06-01T09:05:10.657Z,33.63
2018-06-01T09:07:38.210Z,32.97
2018-06-01T09:10:08.545Z,33.97
2018-06-01T09:12:36.177Z,34.30
2018-06-01T09:15:03.700Z,35.58
2018-06-01T09:17:34.651Z,36.20
2018-06-01T09:20:03.148Z,38.70
2018-06-01T09:22:30.683Z,38.97
2018-06-01T09:24:58.193Z,36.85
2018-06-01T09:27:25.709Z,39.53
2018-06-01T09:29:54.011Z,37.08
2018-06-01T09:32:21.531Z,39.45
2018-06-01T09:34:49.057Z,39.30
2018-06-01T09:37:16.574Z,39.05
2018-06-01T09:39:44.895Z,37.63
2018-06-01T09:42:12.406Z,41.42
2018-06-01T09:44:40.688Z,39.47
2018-06-01T09:47:08.991Z,39.13
2018-06-01T09:49:36.514Z,38.50
2018-06-01T09:52:04.032Z,38.00
2018-06-01T09:54:31.578Z,34.72
2018-06-01T09:56:59.154Z,35.42
2018-06-01T09:59:26.682Z,37.08
2018-06-01T10:01:54.219Z,36.65
2018-06-01T10:04:22.051Z,35.35
2018-06-01T10:06:49.571Z,34.10
2018-06-01T10:09:17.740Z,33.85
2018-06-01T10:11:45.254Z,33.22
2018-06-01T10:14:12.911Z,34.53
2018-06-01T10:16:40.448Z,32.00
2018-06-01T10:19:07.968Z,32.58
2018-06-01T10:21:35.479Z,32.15
2018-06-01T10:24:02.998Z,31.85
2018-06-01T10:26:30.561Z,32.17
2018-06-01T10:28:58.742Z,30.77
2018-06-01T10:31:26.263Z,29.80
2018-06-01T10:33:54.298Z,30.25
2018-06-01T10:36:21.811Z,30.55
2018-06-01T10:38:49.403Z,32.03
2018-06-01T10:41:17.179Z,30.92
2018-06-01T10:43:44.698Z,31.12
2018-06-01T10:46:12.226Z,30.90
2018-06-01T10:48:39.753Z,30.27
2018-06-01T10:51:07.475Z,30.02
2018-06-01T10:53:34.995Z,26.00
2018-06-01T10:56:02.952Z,22.60
2018-06-01T10:58:30.471Z,19.00
2018-06-01T11:00:58.017Z,17.67
2018-06-01T11:03:25.544Z,19.98
2018-06-01T11:05:53.298Z,17.25
2018-06-01T11:08:20.826Z,18.90
2018-06-01T11:10:48.363Z,20.37
2018-06-01T11:13:16.388Z,18.85
2018-06-01T11:15:44.153Z,19.73
2018-06-01T11:18:11.671Z,16.02
2018-06-01T11:20:39.966Z,18.00
2018-06-01T11:23:08.248Z,19.35
2018-06-01T11:25:36.543Z,19.10
2018-06-01T11:28:04.070Z,20.73
2018-06-01T11:30:32.385Z,17.17
2018-06-01T11:32:59.905Z,18.05
2018-06-01T11:35:28.206Z,17.42
2018-06-01T11:37:55.718Z,16.48
2018-06-01T11:40:23.250Z,16.75
2018-06-01T11:42:50.775Z,18.83
2018-06-01T11:45:18.295Z,19.80
2018-06-01T11:47:45.807Z,19.90
2018-06-01T11:50:13.330Z,19.20
2018-06-01T11:52:40.858Z,16.92
2018-06-01T11:55:08.383Z,17.83
2018-06-01T11:57:35.910Z,18.40
2018-06-01T12:00:03.433Z,16.62
2018-06-01T12:02:30.966Z,18.70
2018-06-01T12:04:58.523Z,20.08
2018-06-01T12:07:26.043Z,19.75
2018-06-01T12:09:53.559Z,18.75
2018-06-01T12:12:21.085Z,18.62
2018-06-01T12:14:49.373Z,17.12
2018-06-01T12:17:16.900Z,17.30
2018-06-01T12:19:44.419Z,18.80
2018-06-01T12:22:11.935Z,16.45
2018-06-01T12:24:40.279Z,16.45
2018-06-01T12:27:07.819Z,15.60
2018-06-01T12:29:35.334Z,16.27
2018-06-01T12:32:03.620Z,16.87
2018-06-01T12:34:31.134Z,16.80
2018-06-01T12:36:58.674Z,15.32
2018-06-01T12:39:26.204Z,18.12
2018-06-01T12:41:54.518Z,18.55
2018-06-01T12:44:22.076Z,19.77
2018-06-01T12:46:49.619Z,18.25
2018-06-01T12:49:17.161Z,19.62
2018-06-01T12:51:45.459Z,19.33
2018-06-01T12:54:12.983Z,19.45
2018-06-01T12:56:40.516Z,18.92
2018-06-01T12:59:08.026Z,18.65
2018-06-01T13:01:35.554Z,19.95
2018-06-01T13:04:03.067Z,20.20
2018-06-01T13:06:30.603Z,19.25
2018-06-01T13:08:58.136Z,18.75
2018-06-01T13:11:25.674Z,17.62
2018-06-01T13:13:53.194Z,19.58
2018-06-01T13:16:20.732Z,19.50
2018-06-01T13:18:48.257Z,18.45
2018-06-01T13:21:16.552Z,18.83
2018-06-01T13:23:44.069Z,16.15
2018-06-01T13:26:11.591Z,18.65
2018-06-01T13:28:39.116Z,18.17
2018-06-01T13:31:07.393Z,18.30
2018-06-01T13:33:34.912Z,17.60
2018-06-01T13:36:02.455Z,18.35
2018-06-01T13:38:29.970Z,16.73
2018-06-01T13:40:57.488Z,17.08
2018-06-01T13:43:25.008Z,18.50
2018-06-01T13:45:52.537Z,17.37
2018-06-01T13:48:20.060Z,17.75
2018-06-01T13:50:47.588Z,17.80
2018-06-01T13:53:15.110Z,17.30
2018-06-01T13:55:42.623Z,19.83
2018-06-01T13:58:10.139Z,20.95
2018-06-01T14:00:37.687Z,20.90
2018-06-01T14:03:05.207Z,19.90
2018-06-01T14:05:32.722Z,20.75
2018-06-01T14:08:00.255Z,20.08
2018-06-01T14:10:27.775Z,20.77
2018-06-01T14:12:55.297Z,21.00
2018-06-01T14:15:22.824Z,24.30
2018-06-01T14:17:50.354Z,22.40
2018-06-01T14:20:17.883Z,21.90
2018-06-01T14:22:45.527Z,20.75
2018-06-01T14:25:13.040Z,22.05
2018-06-01T14:27:41.331Z,20.75
2018-06-01T14:30:08.850Z,23.92
2018-06-01T14:32:36.368Z,23.20
2018-06-01T14:35:03.884Z,22.00
2018-06-01T14:37:31.418Z,21.83
2018-06-01T14:39:58.943Z,21.33
2018-06-01T14:42:26.476Z,20.52
2018-06-01T14:44:54.019Z,20.92
2018-06-01T14:47:21.580Z,22.40
2018-06-01T14:49:49.108Z,22.42
2018-06-01T14:52:16.639Z,22.77
2018-06-01T14:54:44.926Z,20.65
2018-06-01T14:57:12.439Z,21.17
2018-06-01T14:59:39.950Z,19.00
2018-06-01T15:02:07.462Z,20.35
2018-06-01T15:04:34.985Z,20.37
2018-06-01T15:07:02.508Z,20.67
2018-06-01T15:09:30.799Z,17.98
2018-06-01T15:11:58.318Z,18.50
2018-06-01T15:14:25.855Z,19.90
2018-06-01T15:16:53.393Z,17.98
2018-06-01T15:19:20.935Z,18.90
2018-06-01T15:21:48.451Z,24.25
2018-06-01T15:24:15.973Z,25.58
2018-06-01T15:26:43.500Z,28.73
2018-06-01T15:29:11.020Z,30.17
2018-06-01T15:31:38.559Z,33.40
2018-06-01T15:34:06.075Z,31.45
2018-06-01T15:36:33.590Z,32.92
2018-06-01T15:39:01.106Z,32.40
2018-06-01T15:41:28.970Z,33.45
2018-06-01T15:43:56.491Z,33.47
2018-06-01T15:46:24.015Z,32.15
2018-06-01T15:48:51.534Z,32.33
2018-06-01T15:51:19.059Z,32.55
2018-06-01T15:53:46.580Z,32.33
2018-06-01T15:56:14.431Z,30.33
2018-06-01T15:58:41.973Z,27.85
2018-06-01T16:01:09.479Z,29.55
2018-06-01T16:03:36.995Z,28.55
2018-06-01T16:06:04.514Z,26.70
2018-06-01T16:08:32.031Z,29.60
2018-06-01T16:11:00.306Z,29.20
2018-06-01T16:13:27.827Z,28.02
2018-06-01T16:15:55.351Z,27.65
2018-06-01T16:18:22.863Z,27.05
2018-06-01T16:20:50.652Z,26.52
2018-06-01T16:23:18.179Z,29.30
2018-06-01T16:25:45.704Z,28.33
2018-06-01T16:28:13.223Z,29.17
2018-06-01T16:30:40.740Z,28.77
2018-06-01T16:33:08.259Z,29.23
2018-06-01T16:35:35.780Z,31.48
2018-06-01T16:38:03.304Z,31.25
2018-06-01T16:40:30.835Z,32.05
2018-06-01T16:42:58.362Z,31.87
2018-06-01T16:45:25.898Z,33.28
2018-06-01T16:47:53.478Z,31.98
2018-06-01T16:50:20.990Z,34.58
2018-06-01T16:52:48.521Z,31.95
2018-06-01T16:55:16.075Z,37.38
2018-06-01T16:57:43.601Z,36.25
2018-06-01T17:00:11.143Z,37.33
2018-06-01T17:02:38.678Z,38.42
2018-06-01T17:05:06.184Z,40.53
2018-06-01T17:07:33.701Z,42.03
2018-06-01T17:10:01.996Z,41.50
2018-06-01T17:12:29.514Z,41.65
2018-06-01T17:14:57.039Z,43.55
2018-06-01T17:17:24.752Z,44.08
2018-06-01T17:19:52.271Z,47.60
2018-06-01T17:22:19.783Z,44.85
2018-06-01T17:24:48.063Z,48.70
2018-06-01T17:27:15.600Z,48.38
2018-06-01T17:29:43.114Z,49.22
2018-06-01T17:32:10.637Z,49.70
2018-06-01T17:34:38.922Z,50.42
2018-06-01T17:37:06.448Z,49.10
2018-06-01T17:39:33.995Z,49.40
2018-06-01T17:42:01.532Z,51.03
2018-06-01T17:44:29.058Z,46.65
2018-06-01T17:46:57.347Z,27.75
2018-06-01T17:49:24.873Z,24.25
2018-06-01T17:51:52.404Z,23.73
2018-06-01T17:54:19.916Z,23.00
2018-06-01T17:56:47.432Z,23.70
2018-06-01T17:59:14.947Z,23.92
2018-06-01T18:01:42.488Z,26.58
2018-06-01T18:04:10.018Z,33.35
2018-06-01T18:06:37.537Z,39.40
2018-06-01T18:09:05.858Z,39.38
2018-06-01T18:11:33.374Z,41.85
2018-06-01T18:14:00.895Z,46.70
2018-06-01T18:16:28.415Z,50.40
2018-06-01T18:18:55.930Z,51.50
2018-06-01T18:21:24.210Z,53.40
2018-06-01T18:23:51.730Z,55.28
2018-06-01T18:26:19.247Z,56.92
2018-06-01T18:28:46.767Z,58.53
2018-06-01T18:31:14.279Z,56.40
2018-06-01T18:33:41.786Z,64.32
2018-06-01T18:36:09.317Z,66.93
2018-06-01T18:38:36.943Z,69.72
2018-06-01T18:41:05.228Z,70.78
2018-06-01T18:43:33.347Z,72.22
2018-06-01T18:46:00.860Z,69.93
2018-06-01T18:48:28.728Z,68.80
2018-06-01T18:50:56.354Z,76.07
2018-06-01T18:53:23.871Z,73.07
2018-06-01T18:55:51.431Z,73.82
2018-06-01T18:58:18.951Z,73.75
2018-06-01T19:00:46.471Z,73.53
2018-06-01T19:03:14.020Z,68.22
2018-06-01T19:05:41.551Z,66.68
2018-06-01T19:08:09.098Z,69.60
2018-06-01T19:10:36.616Z,77.05
2018-06-01T19:13:04.236Z,63.35
2018-06-01T19:15:31.733Z,67.97
2018-06-01T19:18:00.038Z,67.72
2018-06-01T19:20:27.826Z,66.72
2018-06-01T19:22:55.360Z,70.47
2018-06-01T19:25:22.891Z,69.75
2018-06-01T19:27:50.406Z,68.18
2018-06-01T19:30:17.954Z,60.63
2018-06-01T19:32:46.237Z,63.72
2018-06-01T19:35:13.764Z,62.70
2018-06-01T19:37:41.286Z,60.88
2018-06-01T19:40:08.863Z,62.38
2018-06-01T19:42:36.355Z,60.97
2018-06-01T19:45:03.875Z,58.90
2018-06-01T19:47:31.418Z,51.78
2018-06-01T19:49:58.936Z,46.37
2018-06-01T19:52:26.463Z,29.27
2018-06-01T19:54:53.995Z,23.52
2018-06-01T19:57:21.515Z,26.77
2018-06-01T19:59:49.107Z,24.27
2018-06-01T20:02:16.696Z,21.42
2018-06-01T20:04:44.232Z,20.62
2018-06-01T20:07:11.786Z,21.15
2018-06-01T20:09:39.330Z,20.52
2018-06-01T20:12:07.611Z,22.20
2018-06-01T20:14:35.542Z,21.90
2018-06-01T20:17:03.101Z,22.95
2018-06-01T20:19:30.610Z,19.42
2018-06-01T20:21:58.895Z,19.92
2018-06-01T20:24:26.416Z,17.35
2018-06-01T20:26:53.956Z,16.20
2018-06-01T20:29:21.478Z,15.38
2018-06-01T20:31:49.008Z,16.62
2018-06-01T20:34:16.532Z,16.35
2018-06-01T20:36:44.819Z,13.93
2018-06-01T20:39:12.623Z,13.57
2018-06-01T20:41:40.317Z,14.35
2018-06-01T20:44:07.990Z,12.35
2018-06-01T20:46:35.516Z,12.32
2018-06-01T20:49:03.302Z,12.57
2018-06-01T20:51:30.835Z,12.88
2018-06-01T20:53:58.350Z,12.20
2018-06-01T20:56:26.165Z,12.80
2018-06-01T20:58:53.700Z,11.75
2018-06-01T21:01:24.292Z,11.90
2018-06-01T21:03:51.811Z,11.75
2018-06-01T21:06:19.685Z,12.43
2018-06-01T21:08:47.195Z,14.60
2018-06-01T21:11:14.711Z,16.25
2018-06-01T21:13:42.232Z,16.10
2018-06-01T21:16:09.774Z,18.65
2018-06-01T21:18:37.291Z,21.10
2018-06-01T21:21:05.580Z,23.08
2018-06-01T21:23:33.115Z,25.48
2018-06-01T21:26:00.630Z,26.55
2018-06-01T21:28:28.188Z,30.10
2018-06-01T21:30:55.754Z,33.38
2018-06-01T21:33:23.243Z,34.35
2018-06-01T21:35:50.756Z,35.20
2018-06-01T21:38:18.285Z,38.92
2018-06-01T21:40:45.810Z,40.45
2018-06-01T21:43:13.351Z,41.67
2018-06-01T21:45:40.859Z,42.58
2018-06-01T21:48:09.154Z,43.00
2018-06-01T21:50:36.668Z,45.08
2018-06-01T21:53:04.708Z,46.03
2018-06-01T21:55:32.265Z,48.10
2018-06-01T21:57:59.815Z,46.65
2018-06-01T22:00:28.275Z,50.47
2018-06-01T22:02:55.800Z,47.08
2018-06-01T22:05:23.326Z,50.85
2018-06-01T22:07:50.843Z,47.33
2018-06-01T22:10:18.380Z,50.75
2018-06-01T22:12:45.900Z,50.95
2018-06-01T22:15:13.410Z,48.83
2018-06-01T22:17:40.936Z,48.50
2018-06-01T22:20:08.456Z,50.70
2018-06-01T22:22:36.747Z,49.08
2018-06-01T22:25:04.268Z,50.42
2018-06-01T22:27:31.785Z,49.83
2018-06-01T22:29:59.306Z,50.78
2018-06-01T22:32:26.822Z,49.70
2018-06-01T22:34:54.339Z,50.60
2018-06-01T22:37:21.851Z,50.47
2018-06-01T22:39:49.374Z,51.10
2018-06-01T22:42:16.890Z,48.90
2018-06-01T22:44:44.414Z,48.53
2018-06-01T22:47:11.928Z,48.72
2018-06-01T22:49:40.223Z,49.22
2018-06-01T22:52:07.748Z,47.30
2018-06-01T22:54:35.295Z,51.33
2018-06-01T22:57:02.807Z,47.20
2018-06-01T22:59:30.332Z,47.55
2018-06-01T23:01:57.848Z,47.15
2018-06-01T23:04:25.427Z,47.67
2018-06-01T23:06:52.953Z,46.22
2018-06-01T23:09:20.481Z,49.00
2018-06-01T23:11:47.995Z,48.03
2018-06-01T23:14:15.530Z,44.45
2018-06-01T23:16:43.054Z,46.58
2018-06-01T23:19:10.570Z,48.42
2018-06-01T23:21:38.114Z,48.10
2018-06-01T23:24:05.639Z,49.03
2018-06-01T23:26:33.163Z,47.85
2018-06-01T23:29:00.682Z,47.38
2018-06-01T23:31:28.202Z,44.80
2018-06-01T23:33:55.729Z,44.08
2018-06-01T23:36:23.262Z,43.20
2018-06-01T23:38:50.779Z,43.87
2018-06-01T23:41:18.304Z,42.55
2018-06-01T23:43:45.819Z,43.63
2018-06-01T23:46:13.335Z,44.17
2018-06-01T23:48:41.444Z,43.28
2018-06-01T23:51:08.976Z,43.25
2018-06-01T23:53:36.491Z,42.15
2018-06-01T23:56:04.015Z,40.38
2018-06-01T23:58:31.534Z,43.30
